< < Back
Terminal Aerodrome Forecast


Current Version              Previous Versions:   1  2  3  4  5  6  7  8  9  

Terminal Aerodrome Forecast

070
FTUS42 KGSP 212321
TAFAND
TAF
KAND 212321Z 2200/2224 27012G22KT P6SM FEW250
     FM220100 30008KT P6SM FEW250
     FM220800 02005KT P6SM FEW150
     FM221700 04004KT P6SM SKC=



Latest METAR

021
SAUS70 KWBC 221700 RRG
MTRAND
METAR KAND 221656Z AUTO 10SM CLR 22/08 A3021 RMK AO2 SLP224
T02170083


USA.gov is the U.S. government's official web portal to all federal, state and local government web resources and services.